Time;durP1;ratioP1;P1;durP2;ratioP2;P2;SDS_P1;SDS_P2;PMS_P1;PMS_P2;Temp;Humidity;BMP_temperature;BMP_pressure;BME280_temperature;BME280_humidity;BME280_pressure;Samples;Min_cycle;Max_cycle;Signal;HPM_P1;HPM_P2
2023/04/10 00:01:37;;;;;;;7.10;6.05;;;19.40;50.00;;;;;;4980068;28;20213;-70
2023/04/10 00:04:04;;;;;;;7.10;6.13;;;19.50;50.10;;;;;;4982399;28;20197;-70
2023/04/10 00:06:31;;;;;;;7.05;6.35;;;19.40;50.00;;;;;;4979207;28;20213;-70
2023/04/10 00:08:58;;;;;;;6.40;5.80;;;19.50;50.10;;;;;;4980238;28;20201;-70
2023/04/10 00:11:25;;;;;;;7.10;6.40;;;19.40;50.00;;;;;;4964071;28;20284;-70
2023/04/10 00:13:51;;;;;;;6.75;6.10;;;19.40;50.00;;;;;;4973903;28;20198;-70
2023/04/10 00:16:17;;;;;;;6.20;5.60;;;19.40;50.10;;;;;;4991659;28;20243;-70
2023/04/10 00:18:43;;;;;;;5.80;5.20;;;19.40;50.00;;;;;;4999815;28;20192;-70
2023/04/10 00:21:08;;;;;;;6.88;6.03;;;19.40;50.00;;;;;;4979932;28;20217;-70
2023/04/10 00:23:34;;;;;;;6.00;5.40;;;19.40;50.00;;;;;;4980345;28;20228;-70
2023/04/10 00:26:00;;;;;;;6.05;5.13;;;19.40;50.00;;;;;;4981445;28;20213;-70
2023/04/10 00:28:26;;;;;;;5.80;5.28;;;19.40;50.00;;;;;;4967563;28;20192;-70
2023/04/10 00:30:52;;;;;;;6.85;5.70;;;19.50;50.10;;;;;;4974896;28;20205;-70
2023/04/10 00:33:18;;;;;;;6.65;5.97;;;19.40;50.10;;;;;;4980026;28;20567;-70
2023/04/10 00:35:44;;;;;;;5.88;5.38;;;19.40;50.10;;;;;;4979394;28;20186;-70
2023/04/10 00:38:10;;;;;;;6.03;5.53;;;19.40;50.10;;;;;;4974657;28;20586;-70
2023/04/10 00:40:36;;;;;;;6.30;5.70;;;19.40;50.10;;;;;;4983241;28;20652;-70
2023/04/10 00:43:02;;;;;;;6.47;5.88;;;19.50;50.20;;;;;;4975305;28;20190;-70
2023/04/10 00:45:28;;;;;;;6.13;5.53;;;19.40;50.00;;;;;;4986225;28;20584;-70
2023/04/10 00:47:54;;;;;;;5.85;5.30;;;19.40;50.10;;;;;;4988034;28;20699;-70
2023/04/10 00:50:21;;;;;;;6.00;5.50;;;19.40;50.10;;;;;;4979614;28;20275;-70
2023/04/10 00:52:48;;;;;;;6.18;5.55;;;19.40;50.10;;;;;;4979802;28;20189;-70
2023/04/10 00:55:15;;;;;;;7.47;6.25;;;19.40;50.10;;;;;;4975334;28;20215;-70
2023/04/10 00:57:45;;;;;;;6.65;5.95;;;19.40;50.10;;;;;;4999407;28;20276;-70
2023/04/10 01:00:16;;;;;;;6.00;5.40;;;19.50;50.20;;;;;;4981479;28;20684;-70
2023/04/10 01:02:42;;;;;;;5.15;4.60;;;19.40;50.10;;;;;;4971921;28;20221;-70
2023/04/10 01:05:11;;;;;;;5.53;5.00;;;19.40;50.10;;;;;;4982063;28;20228;-70
2023/04/10 01:08:11;;;;;;;5.63;5.13;;;19.40;50.10;;;;;;4966738;28;20209;-70
2023/04/10 01:10:56;;;;;;;5.53;5.03;;;19.40;50.10;;;;;;4958122;28;20228;-70
2023/04/10 01:13:38;;;;;;;5.63;5.05;;;19.40;50.10;;;;;;4968460;28;20188;-70
2023/04/10 01:16:22;;;;;;;6.80;5.40;;;19.40;50.10;;;;;;4973060;28;20189;-71
2023/04/10 01:19:09;;;;;;;5.07;4.60;;;19.40;50.10;;;;;;4979056;28;20240;-70
2023/04/10 01:21:37;;;;;;;5.30;4.80;;;19.40;50.10;;;;;;4973451;28;20233;-70
2023/04/10 01:24:55;;;;;;;5.28;4.85;;;19.40;50.10;;;;;;4972809;28;20241;-70
2023/04/10 01:27:57;;;;;;;5.15;4.65;;;19.40;50.10;;;;;;4968961;28;20240;-69
2023/04/10 01:30:23;;;;;;;5.38;4.88;;;19.40;50.10;;;;;;4972489;28;20211;-70
2023/04/10 01:32:55;;;;;;;5.72;5.20;;;19.40;50.10;;;;;;4979179;28;20228;-70
2023/04/10 01:35:24;;;;;;;5.10;4.43;;;19.40;50.10;;;;;;4969308;28;20184;-70
2023/04/10 01:37:52;;;;;;;5.28;4.78;;;19.40;50.10;;;;;;4966991;28;20243;-70
2023/04/10 01:40:20;;;;;;;5.00;4.60;;;19.40;50.10;;;;;;4979165;28;20209;-70
2023/04/10 01:42:52;;;;;;;5.38;4.90;;;19.40;50.10;;;;;;4971546;28;20280;-70
2023/04/10 01:45:26;;;;;;;4.97;4.57;;;19.40;50.10;;;;;;4950963;28;20188;-70
2023/04/10 01:47:54;;;;;;;4.85;4.45;;;19.40;50.10;;;;;;4977763;28;20214;-70
2023/04/10 01:50:24;;;;;;;4.57;4.18;;;19.40;50.10;;;;;;4982816;28;20739;-70
2023/04/10 01:52:55;;;;;;;4.60;4.20;;;19.40;50.10;;;;;;4966239;28;20239;-70
2023/04/10 01:55:26;;;;;;;5.30;4.90;;;19.40;50.10;;;;;;4986394;28;20189;-70
2023/04/10 01:57:58;;;;;;;5.40;4.90;;;19.40;50.10;;;;;;4985687;28;20193;-70
2023/04/10 02:00:24;;;;;;;5.05;4.63;;;19.40;50.10;;;;;;4977480;28;20720;-70
2023/04/10 02:02:50;;;;;;;5.28;4.78;;;19.40;50.10;;;;;;4982347;28;20189;-70
2023/04/10 02:05:16;;;;;;;5.10;4.60;;;19.40;50.10;;;;;;4985420;28;20196;-70
2023/04/10 02:08:04;;;;;;;4.70;4.30;;;19.40;50.10;;;;;;4985877;28;20232;-71
2023/04/10 02:10:42;;;;;;;5.05;4.57;;;19.40;50.00;;;;;;4975937;28;20240;-70
2023/04/10 02:13:14;;;;;;;4.70;4.30;;;19.40;50.00;;;;;;4974445;28;20554;-70
2023/04/10 02:15:46;;;;;;;5.20;4.70;;;19.40;50.00;;;;;;4957942;28;20197;-70
2023/04/10 02:18:17;;;;;;;4.35;3.95;;;19.40;50.00;;;;;;4961610;28;20212;-71
2023/04/10 02:20:43;;;;;;;5.18;4.68;;;19.40;50.00;;;;;;4975199;28;20209;-70
2023/04/10 02:23:15;;;;;;;5.20;4.68;;;19.40;50.10;;;;;;4975037;28;20190;-70
2023/04/10 02:25:41;;;;;;;4.93;4.50;;;19.40;50.10;;;;;;4982322;28;20190;-70
2023/04/10 02:28:07;;;;;;;4.57;4.18;;;19.40;50.10;;;;;;4970803;28;20181;-70
2023/04/10 02:30:34;;;;;;;4.15;3.78;;;19.40;50.10;;;;;;4962957;28;20229;-70
2023/04/10 02:33:00;;;;;;;4.85;4.45;;;19.40;50.10;;;;;;4977065;28;20212;-70
2023/04/10 02:35:28;;;;;;;4.95;4.55;;;19.40;50.10;;;;;;4957988;28;20217;-71
2023/04/10 02:37:55;;;;;;;5.18;4.70;;;19.40;50.10;;;;;;4981812;28;20190;-70
2023/04/10 02:40:22;;;;;;;5.05;4.55;;;19.40;50.10;;;;;;4960666;28;20736;-70
2023/04/10 02:43:06;;;;;;;4.70;4.30;;;19.40;50.10;;;;;;4969762;28;20220;-70
2023/04/10 02:45:32;;;;;;;5.25;4.75;;;19.40;50.10;;;;;;4962705;28;20190;-70
2023/04/10 02:47:58;;;;;;;4.50;4.10;;;19.40;50.10;;;;;;4965457;28;20213;-70
2023/04/10 02:50:28;;;;;;;4.95;4.55;;;19.40;50.00;;;;;;4984805;28;20221;-70
2023/04/10 02:52:55;;;;;;;4.63;4.22;;;19.40;50.00;;;;;;5001054;28;20196;-70
2023/04/10 02:55:21;;;;;;;5.63;4.68;;;19.40;50.10;;;;;;4982886;28;20181;-70
2023/04/10 02:57:47;;;;;;;4.65;4.25;;;19.40;50.10;;;;;;4964628;28;20247;-70
2023/04/10 03:00:13;;;;;;;4.43;4.03;;;19.40;50.00;;;;;;4982190;28;20185;-70
2023/04/10 03:02:57;;;;;;;5.20;4.70;;;19.40;50.00;;;;;;4990605;28;20232;-70
2023/04/10 03:05:27;;;;;;;4.90;4.50;;;19.40;50.00;;;;;;4966664;28;20192;-70
2023/04/10 03:07:53;;;;;;;4.60;4.20;;;19.40;50.00;;;;;;4981266;28;20213;-70
2023/04/10 03:10:19;;;;;;;4.65;4.25;;;19.40;50.00;;;;;;4981090;28;20221;-70
2023/04/10 03:12:47;;;;;;;4.30;3.90;;;19.40;50.00;;;;;;4981326;28;20182;-70
2023/04/10 03:15:13;;;;;;;4.38;3.97;;;19.40;50.10;;;;;;4983370;28;20276;-70
2023/04/10 03:17:39;;;;;;;4.60;4.20;;;19.40;50.00;;;;;;4992603;28;20284;-70
2023/04/10 03:20:06;;;;;;;4.88;4.35;;;19.40;50.10;;;;;;4983858;28;20195;-70
2023/04/10 03:22:33;;;;;;;4.55;4.15;;;19.40;50.10;;;;;;4980639;28;20272;-70
2023/04/10 03:25:00;;;;;;;4.65;4.25;;;19.40;50.60;;;;;;4981209;28;20280;-70
2023/04/10 03:27:26;;;;;;;4.90;4.40;;;19.40;50.00;;;;;;4973414;28;20212;-70
2023/04/10 03:29:51;;;;;;;4.45;4.05;;;19.40;50.00;;;;;;4981017;28;20181;-70
2023/04/10 03:32:17;;;;;;;4.50;4.10;;;19.40;50.00;;;;;;4988499;28;20215;-74
2023/04/10 03:34:43;;;;;;;4.57;4.18;;;19.40;50.00;;;;;;4980834;28;20182;-70
2023/04/10 03:37:09;;;;;;;4.60;4.20;;;19.40;49.90;;;;;;4980990;28;20193;-70
2023/04/10 03:39:36;;;;;;;5.05;4.65;;;19.40;50.00;;;;;;4981103;28;20189;-69
2023/04/10 03:42:01;;;;;;;4.47;4.10;;;19.40;50.00;;;;;;4980309;28;20224;-70
2023/04/10 03:44:28;;;;;;;3.97;3.67;;;19.40;50.00;;;;;;4976647;28;20185;-70
2023/04/10 03:46:54;;;;;;;4.75;4.35;;;19.40;49.90;;;;;;4976701;28;20214;-70
2023/04/10 03:49:20;;;;;;;4.28;3.88;;;19.40;49.90;;;;;;4964590;28;20191;-70
2023/04/10 03:51:46;;;;;;;4.25;3.85;;;19.40;49.90;;;;;;4956113;28;20220;-70
2023/04/10 03:54:11;;;;;;;3.88;3.58;;;19.40;49.90;;;;;;4981711;28;20185;-70
2023/04/10 03:56:37;;;;;;;3.95;3.65;;;19.40;49.90;;;;;;4978613;28;20272;-71
2023/04/10 03:59:03;;;;;;;3.97;3.65;;;19.40;49.90;;;;;;4967283;28;20718;-70
2023/04/10 04:01:36;;;;;;;4.13;3.83;;;19.40;50.50;;;;;;4980138;28;20213;-71
2023/04/10 04:04:08;;;;;;;4.22;3.83;;;19.40;49.90;;;;;;4981536;28;20252;-70
2023/04/10 04:06:52;;;;;;;4.75;4.35;;;19.40;49.90;;;;;;4980126;28;20256;-70
2023/04/10 04:09:24;;;;;;;4.40;4.00;;;19.40;49.90;;;;;;4972386;28;20196;-70
2023/04/10 04:12:00;;;;;;;4.30;3.90;;;19.40;50.00;;;;;;4957623;28;20229;-70
2023/04/10 04:14:47;;;;;;;4.30;4.00;;;19.40;50.00;;;;;;4978603;28;20181;-70
2023/04/10 04:17:31;;;;;;;4.80;4.40;;;19.40;49.90;;;;;;4974137;28;20192;-70
2023/04/10 04:20:07;;;;;;;3.97;3.67;;;19.40;49.90;;;;;;4981265;28;20193;-70
2023/04/10 04:22:42;;;;;;;4.15;3.85;;;19.40;49.90;;;;;;4978419;28;20194;-70
2023/04/10 04:25:15;;;;;;;4.68;4.28;;;19.40;49.90;;;;;;4978899;28;20181;-70
2023/04/10 04:28:12;;;;;;;4.72;4.30;;;19.40;49.90;;;;;;4980891;28;20276;-70
2023/04/10 04:30:57;;;;;;;3.90;3.60;;;19.40;49.80;;;;;;4976082;28;20237;-70
2023/04/10 04:33:46;;;;;;;4.43;4.03;;;19.30;49.80;;;;;;4966444;28;20613;-70
2023/04/10 04:36:27;;;;;;;3.92;3.60;;;19.40;49.80;;;;;;4971968;28;20186;-70
2023/04/10 04:39:16;;;;;;;4.50;4.10;;;19.30;49.70;;;;;;4970550;28;20300;-70
2023/04/10 04:42:06;;;;;;;4.03;3.72;;;19.40;49.80;;;;;;4971891;28;20212;-69
2023/04/10 04:44:51;;;;;;;4.10;3.80;;;19.30;49.70;;;;;;4979405;28;20204;-70
2023/04/10 04:47:41;;;;;;;4.10;3.80;;;19.30;49.70;;;;;;4965782;28;20202;-70
2023/04/10 04:50:40;;;;;;;4.18;3.85;;;19.30;49.70;;;;;;4944006;28;20264;-70
2023/04/10 04:53:25;;;;;;;4.07;3.70;;;19.30;49.70;;;;;;4972878;28;20205;-70
2023/04/10 04:56:02;;;;;;;4.15;3.80;;;19.30;49.70;;;;;;4971971;28;20232;-70
2023/04/10 04:58:57;;;;;;;4.50;4.10;;;19.30;49.60;;;;;;4956093;28;20201;-70
2023/04/10 05:01:33;;;;;;;4.50;4.03;;;19.40;49.70;;;;;;4956753;28;20201;-70
2023/04/10 05:04:15;;;;;;;4.30;4.00;;;19.30;49.70;;;;;;4985545;28;20190;-70
2023/04/10 05:06:50;;;;;;;4.45;4.05;;;19.40;50.40;;;;;;4973204;28;20213;-69
2023/04/10 05:09:35;;;;;;;4.15;3.75;;;19.30;49.70;;;;;;4965598;28;20181;-70
2023/04/10 05:12:19;;;;;;;4.15;3.75;;;19.30;49.70;;;;;;4989240;28;20291;-70
2023/04/10 05:15:05;;;;;;;4.45;4.10;;;19.40;49.60;;;;;;4992224;28;20280;-70
2023/04/10 05:17:44;;;;;;;3.97;3.65;;;19.30;49.50;;;;;;4978544;28;20224;-70
2023/04/10 05:20:39;;;;;;;4.30;3.90;;;19.30;49.60;;;;;;4969186;28;20244;-70
2023/04/10 05:23:19;;;;;;;3.97;3.67;;;19.30;49.60;;;;;;4970384;28;20216;-70
2023/04/10 05:25:55;;;;;;;4.00;3.70;;;19.30;49.50;;;;;;4994958;28;20189;-70
2023/04/10 05:28:45;;;;;;;4.32;3.92;;;19.30;49.50;;;;;;4980435;28;20173;-70
2023/04/10 05:31:24;;;;;;;4.30;4.00;;;19.40;49.50;;;;;;4977577;28;20211;-71
2023/04/10 05:33:56;;;;;;;3.67;3.38;;;19.40;49.50;;;;;;4983123;28;20573;-70
2023/04/10 05:36:31;;;;;;;3.72;3.42;;;19.30;49.40;;;;;;4986402;28;20187;-70
2023/04/10 05:39:20;;;;;;;4.10;3.80;;;19.30;49.40;;;;;;4992582;28;20185;-70
2023/04/10 05:42:00;;;;;;;3.42;3.20;;;19.30;49.40;;;;;;4990187;28;20196;-70
2023/04/10 05:44:30;;;;;;;3.60;3.30;;;19.30;49.40;;;;;;4982980;28;20182;-70
2023/04/10 05:47:20;;;;;;;3.90;3.60;;;19.30;49.40;;;;;;4971544;28;20233;-70
2023/04/10 05:49:56;;;;;;;4.40;4.00;;;19.30;49.30;;;;;;4976117;28;20289;-70
2023/04/10 05:52:34;;;;;;;3.83;3.53;;;19.30;49.30;;;;;;4968011;28;20264;-70
2023/04/10 05:55:20;;;;;;;3.42;3.13;;;19.40;49.30;;;;;;4993575;28;20232;-70
2023/04/10 05:58:02;;;;;;;3.50;3.20;;;19.40;49.30;;;;;;4972830;28;20197;-70
2023/04/10 06:00:46;;;;;;;4.47;3.45;;;19.40;49.40;;;;;;4974292;28;20240;-70
2023/04/10 06:03:43;;;;;;;3.63;3.33;;;19.40;49.30;;;;;;4972227;28;20188;-70
2023/04/10 06:06:10;;;;;;;3.95;3.55;;;19.40;49.30;;;;;;4961655;28;20764;-70
2023/04/10 06:08:36;;;;;;;4.10;3.80;;;19.40;49.30;;;;;;4985640;28;20199;-70
2023/04/10 06:11:02;;;;;;;3.70;3.40;;;19.40;49.20;;;;;;4977680;28;20212;-70
2023/04/10 06:13:31;;;;;;;3.97;3.67;;;19.40;49.20;;;;;;4982777;28;20182;-70
2023/04/10 06:15:58;;;;;;;3.90;3.55;;;19.40;49.20;;;;;;4989213;28;20204;-71
2023/04/10 06:18:24;;;;;;;3.65;3.35;;;19.40;49.20;;;;;;4990415;28;20186;-71
2023/04/10 06:20:50;;;;;;;3.72;3.42;;;19.40;49.20;;;;;;4968983;28;20201;-70
2023/04/10 06:23:15;;;;;;;3.60;3.30;;;19.40;49.20;;;;;;4993510;28;20263;-70
2023/04/10 06:25:42;;;;;;;3.72;3.42;;;19.50;49.20;;;;;;4981568;28;20181;-70
2023/04/10 06:28:08;;;;;;;3.40;3.10;;;19.50;49.20;;;;;;4973771;28;20232;-70
2023/04/10 06:30:36;;;;;;;4.03;3.65;;;19.50;49.20;;;;;;4993246;28;20231;-70
2023/04/10 06:33:03;;;;;;;4.32;3.75;;;19.40;49.00;;;;;;4969224;28;20217;-70
2023/04/10 06:35:31;;;;;;;3.88;3.58;;;19.50;49.10;;;;;;4993267;28;20180;-70
2023/04/10 06:37:57;;;;;;;4.65;4.03;;;19.40;49.00;;;;;;4979157;28;20193;-70
2023/04/10 06:40:23;;;;;;;4.05;3.75;;;19.50;49.10;;;;;;4983305;28;20251;-70
2023/04/10 06:42:49;;;;;;;3.80;3.50;;;19.50;49.10;;;;;;4979944;28;20229;-70
2023/04/10 06:45:28;;;;;;;3.65;3.38;;;19.50;49.00;;;;;;4983975;28;20239;-70
2023/04/10 06:47:53;;;;;;;3.33;3.13;;;19.50;49.00;;;;;;4985017;28;20220;-70
2023/04/10 06:50:19;;;;;;;3.30;3.00;;;19.50;49.00;;;;;;4984906;28;20217;-70
2023/04/10 06:52:46;;;;;;;4.05;3.65;;;19.50;49.00;;;;;;4993227;28;20185;-70
2023/04/10 06:55:12;;;;;;;4.13;3.83;;;19.50;49.00;;;;;;4984934;28;20193;-70
2023/04/10 06:57:39;;;;;;;4.03;3.70;;;19.50;49.00;;;;;;4985060;28;20185;-70
2023/04/10 07:00:06;;;;;;;3.97;3.63;;;19.50;49.00;;;;;;4994057;28;20189;-70
2023/04/10 07:02:32;;;;;;;3.97;3.67;;;19.50;48.90;;;;;;4992502;28;20196;-70
2023/04/10 07:04:58;;;;;;;3.85;3.55;;;19.60;48.90;;;;;;4970382;28;20249;-70
2023/04/10 07:07:24;;;;;;;3.42;3.13;;;19.60;48.80;;;;;;4974616;28;20228;-70
2023/04/10 07:09:50;;;;;;;4.22;3.85;;;19.60;48.90;;;;;;4994191;28;20236;-70
2023/04/10 07:12:15;;;;;;;3.92;3.53;;;19.60;48.80;;;;;;4993796;28;20209;-70
2023/04/10 07:14:41;;;;;;;3.63;3.33;;;19.60;48.80;;;;;;4980707;28;20196;-70
2023/04/10 07:17:08;;;;;;;3.38;3.15;;;19.60;48.70;;;;;;4988671;28;20185;-70
2023/04/10 07:19:33;;;;;;;3.67;3.38;;;19.60;48.70;;;;;;4992179;28;20197;-70
2023/04/10 07:22:00;;;;;;;3.85;3.55;;;19.60;48.60;;;;;;4984078;28;20293;-70
2023/04/10 07:24:26;;;;;;;3.70;3.40;;;19.70;48.70;;;;;;4966649;28;20250;-70
2023/04/10 07:26:52;;;;;;;4.20;3.70;;;19.60;49.20;;;;;;4981026;28;20220;-70
2023/04/10 07:29:19;;;;;;;3.38;3.17;;;19.70;48.60;;;;;;4981469;28;20182;-70
2023/04/10 07:31:45;;;;;;;3.40;3.10;;;19.70;48.60;;;;;;4985228;28;20189;-70
2023/04/10 07:34:11;;;;;;;3.42;3.13;;;19.70;48.60;;;;;;4992268;28;20185;-70
2023/04/10 07:36:37;;;;;;;3.35;3.15;;;19.70;48.60;;;;;;4972983;28;20607;-70
2023/04/10 07:39:03;;;;;;;3.47;3.17;;;19.70;48.50;;;;;;4987283;28;20193;-70
2023/04/10 07:41:29;;;;;;;3.45;3.15;;;19.70;48.40;;;;;;4993170;28;20239;-70
2023/04/10 07:43:54;;;;;;;4.05;3.40;;;19.80;48.40;;;;;;4985194;28;20196;-70
2023/04/10 07:46:20;;;;;;;3.47;3.25;;;19.80;48.40;;;;;;4984094;28;20217;-70
2023/04/10 07:48:46;;;;;;;3.42;3.13;;;19.80;48.40;;;;;;4978018;28;20189;-70
2023/04/10 07:51:13;;;;;;;3.72;3.42;;;19.90;48.50;;;;;;4991670;28;20212;-70
2023/04/10 07:53:39;;;;;;;3.70;3.40;;;19.90;48.50;;;;;;4981798;28;20190;-70
2023/04/10 07:56:05;;;;;;;3.30;3.00;;;19.90;48.40;;;;;;4987441;28;20227;-70
2023/04/10 07:58:32;;;;;;;2.83;2.63;;;19.90;48.30;;;;;;4982679;28;20181;-70
2023/04/10 08:00:58;;;;;;;3.10;2.90;;;19.90;48.40;;;;;;4977750;28;20201;-70
2023/04/10 08:03:25;;;;;;;3.40;3.10;;;19.90;48.40;;;;;;4991654;28;20199;-70
2023/04/10 08:05:51;;;;;;;2.97;2.78;;;19.90;48.40;;;;;;4980208;28;20236;-70
2023/04/10 08:08:16;;;;;;;3.58;3.28;;;20.00;48.40;;;;;;4988386;28;20224;-70
2023/04/10 08:10:42;;;;;;;3.03;2.83;;;19.90;48.40;;;;;;4989209;28;20597;-70
2023/04/10 08:13:08;;;;;;;3.40;3.20;;;20.00;48.40;;;;;;4987133;28;20260;-70
2023/04/10 08:15:34;;;;;;;3.08;2.88;;;20.00;48.40;;;;;;4983658;28;20274;-70
2023/04/10 08:18:00;;;;;;;3.15;2.92;;;20.00;48.40;;;;;;4975439;28;20193;-70
2023/04/10 08:20:27;;;;;;;3.28;2.97;;;20.00;48.40;;;;;;4983149;28;20218;-70
2023/04/10 08:22:53;;;;;;;3.28;3.08;;;20.00;48.50;;;;;;4991352;28;20181;-70
2023/04/10 08:25:19;;;;;;;2.80;2.60;;;20.00;48.50;;;;;;4991592;28;20200;-70
2023/04/10 08:27:44;;;;;;;3.05;2.80;;;20.00;48.40;;;;;;4991702;28;20205;-70
2023/04/10 08:30:10;;;;;;;3.70;3.10;;;20.00;48.40;;;;;;4984641;28;20561;-70
2023/04/10 08:32:38;;;;;;;3.30;2.88;;;20.00;48.20;;;;;;4983070;28;20284;-70
2023/04/10 08:35:04;;;;;;;3.30;3.00;;;20.10;48.30;;;;;;4991515;28;20204;-70
2023/04/10 08:37:30;;;;;;;3.50;3.20;;;20.10;48.40;;;;;;4991227;28;20188;-70
2023/04/10 08:39:57;;;;;;;3.17;2.97;;;20.00;48.20;;;;;;4992602;28;20189;-70
2023/04/10 08:42:24;;;;;;;3.38;3.08;;;20.00;48.30;;;;;;4991058;28;20299;-70
2023/04/10 08:44:51;;;;;;;3.22;3.03;;;20.10;48.40;;;;;;4991613;28;20233;-70
2023/04/10 08:47:20;;;;;;;2.80;2.60;;;20.10;48.40;;;;;;4983464;28;20209;-70
2023/04/10 08:50:03;;;;;;;3.47;3.17;;;20.10;48.40;;;;;;4977123;28;20187;-70
2023/04/10 08:52:33;;;;;;;2.95;2.75;;;20.10;48.40;;;;;;4992152;28;20184;-70
2023/04/10 08:55:06;;;;;;;3.05;2.85;;;20.10;48.50;;;;;;4985806;28;20213;-70
2023/04/10 08:57:33;;;;;;;3.80;2.97;;;20.00;48.10;;;;;;4990224;28;20189;-70
2023/04/10 08:59:59;;;;;;;3.03;2.83;;;20.10;48.30;;;;;;4983820;28;20197;-71
2023/04/10 09:02:25;;;;;;;3.05;2.78;;;20.10;48.30;;;;;;4991504;28;20283;-71
2023/04/10 09:04:54;;;;;;;3.50;2.97;;;20.10;48.40;;;;;;4972292;28;20216;-70
2023/04/10 09:07:21;;;;;;;3.28;2.95;;;20.00;48.20;;;;;;4987885;28;20205;-71
2023/04/10 09:09:47;;;;;;;2.70;2.50;;;20.00;48.30;;;;;;4979363;28;20184;-71
2023/04/10 09:12:14;;;;;;;3.00;2.80;;;20.00;48.30;;;;;;4988681;28;20677;-70
2023/04/10 09:14:41;;;;;;;2.83;2.63;;;20.00;48.30;;;;;;4977875;28;20189;-70
2023/04/10 09:17:25;;;;;;;2.90;2.60;;;20.00;48.30;;;;;;4996388;28;20193;-70
2023/04/10 09:19:55;;;;;;;2.85;2.65;;;20.10;48.40;;;;;;4976471;28;20186;-70
2023/04/10 09:22:33;;;;;;;3.15;2.95;;;20.10;48.40;;;;;;4974907;28;20213;-70
2023/04/10 09:25:01;;;;;;;2.75;2.55;;;20.00;48.30;;;;;;4986738;28;20184;-70
2023/04/10 09:27:31;;;;;;;2.58;2.38;;;20.00;48.20;;;;;;4987784;28;20216;-70
2023/04/10 09:29:57;;;;;;;3.30;3.00;;;20.00;48.20;;;;;;4991188;28;20290;-70
2023/04/10 09:32:44;;;;;;;2.58;2.40;;;20.10;48.80;;;;;;4969071;28;20218;-70
2023/04/10 09:35:13;;;;;;;3.08;2.88;;;20.10;48.20;;;;;;4991116;28;20180;-70
2023/04/10 09:37:42;;;;;;;2.80;2.60;;;20.00;48.30;;;;;;4986676;28;20207;-70
2023/04/10 09:40:23;;;;;;;2.78;2.58;;;20.10;48.30;;;;;;4986306;28;20195;-70
2023/04/10 09:42:49;;;;;;;2.90;2.70;;;20.00;48.10;;;;;;4994272;28;20195;-70
2023/04/10 09:45:18;;;;;;;2.72;2.50;;;20.10;48.20;;;;;;4994495;28;20240;-70
2023/04/10 09:48:01;;;;;;;2.60;2.40;;;20.00;48.10;;;;;;4992633;28;20699;-70
2023/04/10 09:50:39;;;;;;;3.10;2.80;;;20.10;48.30;;;;;;4991950;28;20243;-70
2023/04/10 09:53:11;;;;;;;2.80;2.60;;;20.00;48.10;;;;;;4988761;28;20243;-70
2023/04/10 09:55:37;;;;;;;2.92;2.72;;;20.00;48.10;;;;;;4977968;28;20409;-70
2023/04/10 09:58:07;;;;;;;2.60;2.40;;;20.10;48.20;;;;;;4980954;28;20217;-70
2023/04/10 10:00:42;;;;;;;3.33;3.03;;;20.00;48.20;;;;;;4984003;28;20209;-70
2023/04/10 10:03:19;;;;;;;2.88;2.67;;;20.10;48.20;;;;;;4979892;28;20185;-70
2023/04/10 10:05:49;;;;;;;2.88;2.67;;;20.00;48.20;;;;;;4984070;28;20185;-70
2023/04/10 10:08:16;;;;;;;3.00;2.70;;;20.10;48.20;;;;;;4982278;28;20815;-70
2023/04/10 10:10:55;;;;;;;2.50;2.33;;;20.00;48.20;;;;;;4994870;28;20209;-70
2023/04/10 10:13:51;;;;;;;2.95;2.75;;;20.00;48.10;;;;;;4970044;28;20189;-70
2023/04/10 10:16:33;;;;;;;3.67;3.20;;;20.00;48.10;;;;;;4985593;28;20249;-70
2023/04/10 10:19:06;;;;;;;3.00;2.75;;;20.10;48.20;;;;;;4975731;28;20661;-70
2023/04/10 10:21:34;;;;;;;2.85;2.63;;;20.00;48.10;;;;;;4982856;28;20275;-70
2023/04/10 10:24:01;;;;;;;3.17;2.97;;;20.10;48.20;;;;;;4986135;28;20269;-70
2023/04/10 10:26:33;;;;;;;2.95;2.75;;;20.00;48.20;;;;;;4983952;28;20216;-70
2023/04/10 10:29:05;;;;;;;3.28;3.00;;;20.00;48.20;;;;;;4980132;28;20190;-70
2023/04/10 10:31:32;;;;;;;3.00;2.80;;;20.00;48.30;;;;;;4982987;28;20717;-70
2023/04/10 10:34:08;;;;;;;3.05;2.85;;;20.00;48.20;;;;;;5009796;28;20184;-70
2023/04/10 10:36:39;;;;;;;3.00;2.80;;;20.00;48.10;;;;;;4985318;28;20264;-70
2023/04/10 10:39:32;;;;;;;2.50;2.30;;;20.00;48.10;;;;;;4987970;28;20196;-70
2023/04/10 10:42:10;;;;;;;2.63;2.42;;;20.00;48.10;;;;;;4971091;28;20224;-70
2023/04/10 10:45:12;;;;;;;2.97;2.70;;;20.00;48.10;;;;;;4994464;28;20188;-70
2023/04/10 10:47:44;;;;;;;2.63;2.42;;;20.00;48.20;;;;;;4909770;28;20263;-70
2023/04/10 10:50:10;;;;;;;2.75;2.55;;;20.10;48.30;;;;;;4982921;28;20194;-70
2023/04/10 10:52:52;;;;;;;3.35;3.05;;;20.00;48.20;;;;;;4974808;28;20192;-70
2023/04/10 10:55:35;;;;;;;2.92;2.72;;;20.10;48.30;;;;;;4985077;28;20189;-70
2023/04/10 10:58:09;;;;;;;2.75;2.55;;;20.10;48.30;;;;;;4975198;28;20185;-70
2023/04/10 11:00:50;;;;;;;2.78;2.58;;;20.00;48.10;;;;;;4958860;28;20280;-70
2023/04/10 11:03:16;;;;;;;3.30;3.00;;;20.10;48.20;;;;;;4994511;28;20185;-70
2023/04/10 11:06:01;;;;;;;3.20;2.90;;;20.10;48.20;;;;;;4990500;28;20207;-70
2023/04/10 11:08:34;;;;;;;2.92;2.72;;;20.10;48.20;;;;;;4973655;28;20194;-70
2023/04/10 11:11:04;;;;;;;2.30;2.20;;;20.10;48.20;;;;;;4988148;28;20209;-70
2023/04/10 11:13:38;;;;;;;2.65;2.45;;;20.10;48.20;;;;;;4965710;28;20190;-70
2023/04/10 11:16:07;;;;;;;2.50;2.30;;;20.10;48.20;;;;;;4988004;28;20186;-70
2023/04/10 11:18:45;;;;;;;2.72;2.53;;;20.10;48.30;;;;;;4990268;28;20181;-70
2023/04/10 11:21:16;;;;;;;2.90;2.70;;;20.10;48.20;;;;;;4986655;28;20209;-70
2023/04/10 11:23:54;;;;;;;2.78;2.58;;;20.10;48.20;;;;;;4990518;28;20573;-70
2023/04/10 11:26:33;;;;;;;2.63;2.42;;;20.10;48.20;;;;;;4981126;28;20193;-70
2023/04/10 11:29:01;;;;;;;2.60;2.40;;;20.10;48.10;;;;;;4965261;28;20189;-70
2023/04/10 11:31:27;;;;;;;2.65;2.45;;;20.10;48.20;;;;;;4982009;28;20233;-70
2023/04/10 11:33:57;;;;;;;2.90;2.70;;;20.10;48.10;;;;;;4981395;28;20181;-70
2023/04/10 11:36:23;;;;;;;2.65;2.47;;;20.10;48.20;;;;;;4988571;28;20247;-70
2023/04/10 11:39:08;;;;;;;2.50;2.30;;;20.10;48.00;;;;;;4984263;28;20189;-70
2023/04/10 11:41:37;;;;;;;2.42;2.22;;;20.10;48.00;;;;;;4983165;28;20351;-70
2023/04/10 11:44:06;;;;;;;2.47;2.28;;;20.10;48.20;;;;;;4977590;28;20215;-70
2023/04/10 11:46:37;;;;;;;2.22;2.13;;;20.10;48.00;;;;;;4992676;28;20215;-70
2023/04/10 11:49:06;;;;;;;2.33;2.22;;;20.10;48.20;;;;;;4980902;28;20189;-70
2023/04/10 11:51:32;;;;;;;2.15;2.05;;;20.10;48.20;;;;;;4980628;28;20225;-70
2023/04/10 11:54:11;;;;;;;2.25;2.05;;;20.10;48.20;;;;;;4992290;28;20553;-70
2023/04/10 11:56:39;;;;;;;2.20;2.10;;;20.10;48.00;;;;;;4990996;28;20196;-70
2023/04/10 11:59:08;;;;;;;2.47;2.28;;;20.10;48.20;;;;;;4972527;28;20193;-70
2023/04/10 12:01:34;;;;;;;2.33;2.15;;;20.10;48.10;;;;;;4972477;28;20240;-70
2023/04/10 12:04:00;;;;;;;2.10;2.00;;;20.10;48.50;;;;;;4993468;28;20187;-70
2023/04/10 12:06:26;;;;;;;2.28;2.17;;;20.10;48.20;;;;;;4991781;28;20295;-70
2023/04/10 12:08:53;;;;;;;2.25;2.05;;;20.10;47.90;;;;;;4988611;28;20182;-70
2023/04/10 12:11:24;;;;;;;2.08;1.90;;;20.10;48.00;;;;;;4978623;28;20220;-70
2023/04/10 12:13:55;;;;;;;2.00;1.90;;;20.10;48.00;;;;;;4958149;28;20188;-70
2023/04/10 12:16:23;;;;;;;2.50;2.30;;;20.10;48.00;;;;;;4987392;28;20212;-70
2023/04/10 12:18:49;;;;;;;2.33;2.13;;;20.10;47.90;;;;;;4983399;28;20199;-70
2023/04/10 12:21:15;;;;;;;2.17;2.08;;;20.10;48.00;;;;;;4966901;28;20299;-70
2023/04/10 12:23:41;;;;;;;2.22;2.05;;;20.10;47.90;;;;;;4991364;28;20236;-70
2023/04/10 12:26:16;;;;;;;2.03;1.92;;;20.10;48.10;;;;;;4986615;28;20193;-70
2023/04/10 12:28:52;;;;;;;2.13;2.03;;;20.10;47.90;;;;;;4986809;28;20185;-70
2023/04/10 12:31:26;;;;;;;2.28;2.17;;;20.10;47.60;;;;;;4960654;28;20214;-70
2023/04/10 12:33:56;;;;;;;1.90;1.80;;;20.10;47.60;;;;;;4991622;28;20379;-70
2023/04/10 12:36:25;;;;;;;2.00;1.90;;;20.10;47.50;;;;;;4984927;28;20192;-70
2023/04/10 12:38:51;;;;;;;2.72;2.53;;;20.10;47.40;;;;;;4973236;28;20186;-70
2023/04/10 12:41:23;;;;;;;1.88;1.77;;;20.10;47.50;;;;;;4974830;28;20363;-70
2023/04/10 12:43:52;;;;;;;1.85;1.75;;;20.10;47.70;;;;;;4991288;28;20738;-70
2023/04/10 12:46:28;;;;;;;2.13;2.03;;;20.10;47.50;;;;;;4992398;28;20238;-70
2023/04/10 12:48:55;;;;;;;2.45;2.25;;;20.10;47.60;;;;;;4991457;28;20239;-70
2023/04/10 12:51:48;;;;;;;1.98;1.88;;;20.10;47.70;;;;;;4991033;28;20209;-70
2023/04/10 12:54:46;;;;;;;1.95;1.85;;;20.10;47.40;;;;;;4991241;28;20280;-70
2023/04/10 12:57:28;;;;;;;2.17;2.03;;;20.10;47.70;;;;;;4955980;28;20656;-70
2023/04/10 12:59:55;;;;;;;1.90;1.80;;;20.10;47.60;;;;;;4988092;28;20181;-70
2023/04/10 13:02:21;;;;;;;1.77;1.67;;;20.10;47.60;;;;;;4986178;28;20746;-70
2023/04/10 13:04:46;;;;;;;1.90;1.80;;;20.10;47.70;;;;;;4982354;28;20189;-70
2023/04/10 13:07:12;;;;;;;2.10;2.00;;;20.10;47.70;;;;;;4976845;28;20217;-70
2023/04/10 13:09:38;;;;;;;2.05;1.92;;;20.10;47.70;;;;;;4984077;28;20265;-70
2023/04/10 13:12:05;;;;;;;1.85;1.75;;;20.10;47.60;;;;;;4990748;28;20255;-70